createdAt,value
2022-09-06T00:02:00.972Z,2.30
2022-09-06T00:04:28.838Z,2.28
2022-09-06T00:06:59.438Z,3.30
2022-09-06T00:09:28.635Z,5.03
2022-09-06T00:11:56.440Z,2.80
2022-09-06T00:14:24.218Z,2.03
2022-09-06T00:16:52.025Z,3.13
2022-09-06T00:19:19.857Z,2.72
2022-09-06T00:21:47.641Z,2.50
2022-09-06T00:24:15.476Z,2.60
2022-09-06T00:26:44.657Z,1.40
2022-09-06T00:29:13.150Z,3.30
2022-09-06T00:31:40.965Z,1.58
2022-09-06T00:34:08.750Z,2.35
2022-09-06T00:36:36.501Z,7.30
2022-09-06T00:39:05.161Z,1.83
2022-09-06T00:41:32.902Z,1.48
2022-09-06T00:44:02.128Z,3.80
2022-09-06T00:46:31.383Z,2.20
2022-09-06T00:49:01.947Z,5.13
2022-09-06T00:51:31.121Z,2.15
2022-09-06T00:53:59.085Z,3.30
2022-09-06T00:56:27.564Z,2.20
2022-09-06T00:58:55.834Z,2.83
2022-09-06T01:01:25.124Z,6.25
2022-09-06T01:03:53.140Z,3.20
2022-09-06T01:06:25.782Z,3.38
2022-09-06T01:08:58.804Z,2.75
2022-09-06T01:11:33.094Z,4.88
2022-09-06T01:16:35.194Z,3.22
2022-09-06T01:19:15.301Z,2.17
2022-09-06T01:21:46.969Z,2.92
2022-09-06T01:24:38.057Z,2.40
2022-09-06T01:27:21.811Z,3.55
2022-09-06T01:29:55.982Z,4.73
2022-09-06T01:32:28.220Z,2.40
2022-09-06T01:35:00.309Z,2.70
2022-09-06T01:37:31.432Z,5.05
2022-09-06T01:39:59.332Z,2.53
2022-09-06T01:42:28.672Z,3.10
2022-09-06T01:45:00.154Z,1.83
2022-09-06T01:47:32.539Z,3.03
2022-09-06T01:50:18.269Z,2.38
2022-09-06T01:52:52.376Z,3.63
2022-09-06T01:55:22.829Z,3.40
2022-09-06T01:57:56.591Z,3.80
2022-09-06T02:00:26.219Z,2.08
2022-09-06T02:03:01.050Z,1.85
2022-09-06T02:05:32.165Z,2.55
2022-09-06T02:08:02.128Z,4.45
2022-09-06T02:10:33.191Z,2.28
2022-09-06T02:13:02.256Z,4.38
2022-09-06T02:15:34.157Z,6.32
2022-09-06T02:18:02.696Z,2.75
2022-09-06T02:20:32.151Z,4.25
2022-09-06T02:23:03.341Z,3.67
2022-09-06T02:25:35.241Z,2.90
2022-09-06T02:28:03.417Z,4.80
2022-09-06T02:30:32.801Z,5.72
2022-09-06T02:33:03.190Z,4.32
2022-09-06T02:35:31.314Z,2.40
2022-09-06T02:37:59.371Z,4.10
2022-09-06T02:40:27.279Z,5.78
2022-09-06T02:42:55.087Z,4.45
2022-09-06T02:45:22.879Z,7.28
2022-09-06T02:47:52.257Z,6.93
2022-09-06T02:50:20.209Z,8.32
2022-09-06T02:52:48.349Z,13.75
2022-09-06T02:55:18.816Z,6.70
2022-09-06T02:57:46.674Z,4.20
2022-09-06T03:00:15.025Z,8.15
2022-09-06T03:02:42.901Z,4.30
2022-09-06T03:05:12.182Z,3.83
2022-09-06T03:07:39.945Z,5.07
2022-09-06T03:10:08.059Z,7.72
2022-09-06T03:12:35.823Z,10.13
2022-09-06T03:15:03.670Z,10.20
2022-09-06T03:17:31.554Z,9.23
2022-09-06T03:19:59.360Z,3.25
2022-09-06T03:22:28.505Z,10.73
2022-09-06T03:24:56.680Z,5.05
2022-09-06T03:27:24.598Z,6.47
2022-09-06T03:29:52.401Z,5.93
2022-09-06T03:32:25.172Z,10.95
2022-09-06T03:34:53.075Z,11.68
2022-09-06T03:37:21.022Z,7.10
2022-09-06T03:39:50.477Z,7.28
2022-09-06T03:42:18.411Z,5.95
2022-09-06T03:44:46.212Z,8.30
2022-09-06T03:49:55.644Z,8.00
2022-09-06T03:52:23.456Z,5.70
2022-09-06T03:54:52.671Z,9.57
2022-09-06T03:57:20.482Z,6.72
2022-09-06T03:59:48.441Z,6.18
2022-09-06T04:02:19.626Z,6.05
2022-09-06T04:04:55.580Z,6.10
2022-09-06T04:07:26.400Z,9.43
2022-09-06T04:09:55.601Z,4.85
2022-09-06T04:12:23.405Z,8.32
2022-09-06T04:14:51.451Z,10.07
2022-09-06T04:17:19.314Z,6.80
2022-09-06T04:19:47.080Z,5.00
2022-09-06T04:22:14.852Z,6.82
2022-09-06T04:24:45.331Z,7.07
2022-09-06T04:27:16.753Z,10.93
2022-09-06T04:29:44.629Z,10.82
2022-09-06T04:32:12.570Z,6.05
2022-09-06T04:34:40.520Z,7.65
2022-09-06T04:37:08.513Z,7.43
2022-09-06T04:39:36.267Z,7.18
2022-09-06T04:42:04.167Z,7.97
2022-09-06T04:44:33.446Z,13.10
2022-09-06T04:47:09.449Z,14.38
2022-09-06T04:49:37.473Z,8.27
2022-09-06T04:52:05.264Z,13.07
2022-09-06T04:54:33.083Z,11.48
2022-09-06T04:57:00.893Z,8.00
2022-09-06T04:59:28.627Z,13.65
2022-09-06T05:01:57.870Z,13.25
2022-09-06T05:04:26.249Z,15.25
2022-09-06T05:07:00.733Z,9.93
2022-09-06T05:09:28.586Z,11.75
2022-09-06T05:11:59.585Z,13.68
2022-09-06T05:14:28.034Z,15.18
2022-09-06T05:16:57.461Z,10.68
2022-09-06T05:19:25.331Z,10.68
2022-09-06T05:21:54.642Z,14.70
2022-09-06T05:24:22.429Z,12.13
2022-09-06T05:26:50.287Z,12.27
2022-09-06T05:29:18.058Z,13.48
2022-09-06T05:31:45.836Z,11.77
2022-09-06T05:34:15.432Z,13.30
2022-09-06T05:36:43.199Z,14.27
2022-09-06T05:39:10.933Z,11.15
2022-09-06T05:41:38.890Z,11.88
2022-09-06T05:44:06.667Z,9.85
2022-09-06T05:46:34.515Z,10.85
2022-09-06T05:49:07.833Z,11.00
2022-09-06T05:51:36.998Z,10.10
2022-09-06T05:54:07.969Z,9.00
2022-09-06T05:56:35.728Z,12.38
2022-09-06T05:59:04.563Z,8.77
2022-09-06T06:01:32.407Z,6.38
2022-09-06T06:04:00.869Z,14.85
2022-09-06T06:06:29.225Z,6.45
2022-09-06T06:08:58.675Z,7.55
2022-09-06T06:11:27.171Z,7.85
2022-09-06T06:13:55.165Z,5.88
2022-09-06T06:16:23.706Z,9.48
2022-09-06T06:18:52.761Z,8.65
2022-09-06T06:21:22.158Z,8.70
2022-09-06T06:23:54.432Z,8.38
2022-09-06T06:26:23.961Z,6.82
2022-09-06T06:28:52.006Z,6.18
2022-09-06T06:31:22.901Z,8.32
2022-09-06T06:33:50.985Z,6.68
2022-09-06T06:36:22.858Z,6.75
2022-09-06T06:38:51.727Z,6.85
2022-09-06T06:41:21.452Z,4.78
2022-09-06T06:43:52.713Z,5.03
2022-09-06T06:46:21.008Z,5.07
2022-09-06T06:48:54.527Z,7.93
2022-09-06T06:51:23.486Z,6.28
2022-09-06T06:53:51.737Z,3.55
2022-09-06T06:56:32.245Z,3.83
2022-09-06T06:59:02.392Z,6.45
2022-09-06T07:01:31.822Z,6.70
2022-09-06T07:04:00.183Z,7.00
2022-09-06T07:09:18.293Z,8.60
2022-09-06T07:11:46.310Z,8.98
2022-09-06T07:14:15.586Z,6.10
2022-09-06T07:16:44.005Z,12.25
2022-09-06T07:22:04.623Z,21.05
2022-09-06T07:24:37.045Z,8.15
2022-09-06T07:29:55.845Z,8.95
2022-09-06T07:32:23.984Z,9.00
2022-09-06T07:34:52.798Z,9.70
2022-09-06T07:37:20.863Z,14.30
2022-09-06T07:39:48.626Z,9.45
2022-09-06T07:42:17.429Z,6.95
2022-09-06T07:44:45.233Z,12.98
2022-09-06T07:55:34.539Z,13.05
2022-09-06T07:58:06.950Z,12.35
2022-09-06T08:00:35.082Z,5.97
2022-09-06T08:03:04.838Z,6.75
2022-09-06T08:11:11.506Z,8.48
2022-09-06T08:13:39.843Z,7.50
2022-09-06T08:16:08.435Z,8.85
2022-09-06T08:18:38.832Z,4.10
2022-09-06T08:21:12.047Z,6.10
2022-09-06T08:23:42.867Z,6.35
2022-09-06T08:26:13.080Z,6.50
2022-09-06T08:28:41.043Z,5.13
2022-09-06T08:31:11.346Z,6.85
2022-09-06T08:33:42.956Z,5.80
2022-09-06T08:36:14.087Z,8.68
2022-09-06T08:38:41.945Z,4.85
2022-09-06T08:41:13.617Z,3.80
2022-09-06T08:43:49.272Z,3.60
2022-09-06T08:46:17.672Z,3.22
2022-09-06T08:48:50.876Z,3.10
2022-09-06T08:51:39.806Z,2.65
2022-09-06T08:54:09.298Z,1.83
2022-09-06T08:56:39.759Z,2.08
2022-09-06T08:59:08.813Z,1.85
2022-09-06T09:01:48.075Z,2.85
2022-09-06T09:04:19.769Z,2.65
2022-09-06T09:06:50.935Z,4.65
2022-09-06T09:09:18.770Z,6.50
2022-09-06T09:11:48.718Z,5.35
2022-09-06T09:14:17.960Z,5.28
2022-09-06T09:16:45.856Z,5.63
2022-09-06T09:19:14.566Z,7.68
2022-09-06T09:21:43.827Z,6.25
2022-09-06T09:24:12.301Z,4.22
2022-09-06T09:26:43.500Z,11.38
2022-09-06T09:29:12.505Z,7.15
2022-09-06T09:31:41.496Z,7.82
2022-09-06T09:34:12.514Z,9.70
2022-09-06T09:36:40.659Z,11.60
2022-09-06T09:39:13.178Z,12.43
2022-09-06T09:41:44.015Z,11.32
2022-09-06T09:44:17.560Z,10.85
2022-09-06T09:46:45.481Z,6.60
2022-09-06T09:49:14.081Z,7.22
2022-09-06T09:51:43.326Z,6.40
2022-09-06T09:54:15.723Z,8.55
2022-09-06T09:56:45.801Z,9.70
2022-09-06T09:59:24.053Z,11.55
2022-09-06T10:01:54.042Z,11.65
2022-09-06T10:07:15.060Z,15.23
2022-09-06T10:09:47.044Z,16.45
2022-09-06T10:12:17.349Z,17.92
2022-09-06T10:14:49.125Z,22.83
2022-09-06T10:17:31.867Z,32.15
2022-09-06T10:20:01.690Z,31.98
2022-09-06T10:22:30.528Z,32.90
2022-09-06T10:25:11.832Z,37.78
2022-09-06T10:28:01.550Z,36.10
2022-09-06T10:30:37.185Z,45.30
2022-09-06T10:33:06.846Z,45.58
2022-09-06T10:35:38.221Z,45.72
2022-09-06T10:38:22.537Z,44.83
2022-09-06T10:40:55.876Z,54.35
2022-09-06T10:43:25.517Z,44.97
2022-09-06T10:45:58.119Z,43.40
2022-09-06T10:48:29.075Z,48.40
2022-09-06T10:50:59.082Z,54.83
2022-09-06T10:53:41.008Z,65.40
2022-09-06T10:56:14.717Z,61.78
2022-09-06T11:01:37.222Z,61.92
2022-09-06T11:04:12.854Z,66.13
2022-09-06T11:06:44.977Z,57.20
2022-09-06T11:09:20.249Z,54.83
2022-09-06T11:11:53.126Z,52.10
2022-09-06T11:14:21.689Z,48.63
2022-09-06T11:16:51.012Z,48.83
2022-09-06T11:19:22.707Z,49.50
2022-09-06T11:22:15.057Z,43.15
2022-09-06T11:24:49.221Z,61.03
2022-09-06T11:27:26.378Z,65.70
2022-09-06T11:29:56.591Z,73.65
2022-09-06T11:32:33.279Z,96.38
2022-09-06T11:35:02.602Z,78.55
2022-09-06T11:37:32.820Z,83.97
2022-09-06T11:43:12.717Z,93.38
2022-09-06T11:45:42.236Z,99.57
2022-09-06T11:48:34.346Z,85.15
2022-09-06T11:51:06.795Z,86.82
2022-09-06T11:53:36.453Z,76.40
2022-09-06T11:56:18.091Z,50.67
2022-09-06T11:58:52.196Z,53.40
2022-09-06T12:01:37.483Z,49.63
2022-09-06T12:04:07.755Z,52.25
2022-09-06T12:06:38.989Z,39.10
2022-09-06T12:09:22.224Z,32.67
2022-09-06T12:11:51.442Z,36.30
2022-09-06T12:14:31.161Z,32.17
2022-09-06T12:17:28.933Z,34.13
2022-09-06T12:19:59.610Z,35.35
2022-09-06T12:22:45.973Z,35.78
2022-09-06T12:25:20.251Z,31.95
2022-09-06T12:30:30.986Z,20.92
2022-09-06T12:32:59.447Z,19.33
2022-09-06T12:38:17.262Z,15.48
2022-09-06T12:40:46.592Z,19.30
2022-09-06T12:43:15.632Z,22.67
2022-09-06T12:45:45.432Z,24.67
2022-09-06T12:48:13.990Z,19.45
2022-09-06T12:50:41.803Z,19.52
2022-09-06T12:53:27.714Z,24.88
2022-09-06T12:56:04.158Z,20.70
2022-09-06T12:58:31.950Z,26.52
2022-09-06T13:01:06.286Z,22.65
2022-09-06T13:03:36.222Z,22.65
2022-09-06T13:06:06.222Z,34.08
2022-09-06T13:08:35.785Z,36.88
2022-09-06T13:11:04.964Z,31.98
2022-09-06T13:13:41.247Z,29.27
2022-09-06T13:16:10.367Z,37.50
2022-09-06T13:18:39.756Z,41.88
2022-09-06T13:21:08.837Z,48.25
2022-09-06T13:23:42.324Z,44.95
2022-09-06T13:26:10.335Z,43.22
2022-09-06T13:28:40.950Z,44.50
2022-09-06T13:31:14.431Z,51.58
2022-09-06T13:33:43.365Z,50.20
2022-09-06T13:36:23.515Z,46.13
2022-09-06T13:39:00.208Z,49.00
2022-09-06T13:41:41.274Z,45.03
2022-09-06T13:44:18.910Z,44.90
2022-09-06T13:46:48.147Z,51.22
2022-09-06T13:49:18.717Z,38.40
2022-09-06T13:51:46.470Z,31.10
2022-09-06T13:54:15.654Z,31.83
2022-09-06T13:56:44.765Z,32.58
2022-09-06T13:59:12.835Z,26.50
2022-09-06T14:01:41.511Z,24.50
2022-09-06T14:04:14.277Z,28.17
2022-09-06T14:06:45.959Z,31.92
2022-09-06T14:09:18.233Z,22.33
2022-09-06T14:11:48.190Z,23.70
2022-09-06T14:14:17.783Z,22.73
2022-09-06T14:16:46.296Z,20.58
2022-09-06T14:19:16.040Z,24.55
2022-09-06T14:21:43.893Z,16.35
2022-09-06T14:24:11.902Z,23.65
2022-09-06T14:26:40.170Z,18.17
2022-09-06T14:29:08.295Z,19.17
2022-09-06T14:31:36.097Z,19.90
2022-09-06T14:34:04.303Z,19.50
2022-09-06T14:36:34.482Z,17.60
2022-09-06T14:39:04.799Z,23.60
2022-09-06T14:41:32.894Z,17.80
2022-09-06T14:44:01.145Z,20.90
2022-09-06T14:46:29.868Z,17.75
2022-09-06T14:48:59.508Z,22.10
2022-09-06T14:51:30.325Z,23.20
2022-09-06T14:54:00.246Z,20.27
2022-09-06T14:56:28.074Z,20.55
2022-09-06T14:58:57.504Z,17.13
2022-09-06T15:01:26.365Z,18.83
2022-09-06T15:03:56.499Z,18.58
2022-09-06T15:06:24.943Z,20.85
2022-09-06T15:08:58.382Z,18.23
2022-09-06T15:13:56.352Z,17.13
2022-09-06T15:16:24.323Z,22.38
2022-09-06T15:18:52.018Z,17.90
2022-09-06T15:21:19.681Z,22.15
2022-09-06T15:23:47.626Z,18.75
2022-09-06T15:26:15.929Z,22.58
2022-09-06T15:28:44.398Z,18.40
2022-09-06T15:31:15.593Z,18.75
2022-09-06T15:33:43.477Z,17.48
2022-09-06T15:36:11.628Z,22.52
2022-09-06T15:38:41.360Z,24.23
2022-09-06T15:41:10.387Z,28.35
2022-09-06T15:43:41.176Z,16.90
2022-09-06T15:46:09.531Z,23.25
2022-09-06T15:48:43.679Z,20.85
2022-09-06T15:51:12.379Z,27.92
2022-09-06T15:53:40.757Z,17.20
2022-09-06T15:56:08.632Z,18.40
2022-09-06T15:58:36.479Z,14.70
2022-09-06T16:01:05.906Z,17.60
2022-09-06T16:03:36.021Z,14.00
2022-09-06T16:08:56.642Z,14.10
2022-09-06T16:11:24.446Z,15.30
2022-09-06T16:13:52.148Z,14.88
2022-09-06T16:16:20.200Z,15.10
2022-09-06T16:18:48.407Z,19.70
2022-09-06T16:21:19.066Z,22.65
2022-09-06T16:23:49.667Z,23.48
2022-09-06T16:26:21.467Z,15.93
2022-09-06T16:28:50.469Z,11.77
2022-09-06T16:31:18.711Z,16.48
2022-09-06T16:33:47.549Z,17.95
2022-09-06T16:36:16.056Z,16.50
2022-09-06T16:38:45.505Z,16.55
2022-09-06T16:41:16.639Z,12.50
2022-09-06T16:43:44.724Z,14.68
2022-09-06T16:46:15.105Z,16.20
2022-09-06T16:48:43.161Z,13.88
2022-09-06T16:51:12.237Z,13.82
2022-09-06T16:53:40.435Z,22.88
2022-09-06T16:56:10.016Z,12.75
2022-09-06T16:58:39.217Z,12.45
2022-09-06T17:01:10.573Z,16.35
2022-09-06T17:03:38.603Z,16.70
2022-09-06T17:06:06.904Z,18.70
2022-09-06T17:08:35.051Z,16.83
2022-09-06T17:11:03.249Z,16.10
2022-09-06T17:13:32.769Z,17.77
2022-09-06T17:16:21.901Z,13.45
2022-09-06T17:18:50.680Z,18.27
2022-09-06T17:21:18.488Z,15.75
2022-09-06T17:23:46.397Z,18.90
2022-09-06T17:26:23.347Z,17.02
2022-09-06T17:28:52.555Z,14.57
2022-09-06T17:31:25.145Z,15.98
2022-09-06T17:33:53.742Z,18.35
2022-09-06T17:36:23.707Z,20.52
2022-09-06T17:38:53.742Z,17.92
2022-09-06T17:41:24.305Z,16.38
2022-09-06T17:43:54.649Z,14.75
2022-09-06T17:46:26.454Z,23.70
2022-09-06T17:48:56.711Z,19.77
2022-09-06T17:51:24.837Z,16.50
2022-09-06T17:53:52.651Z,16.17
2022-09-06T17:56:22.267Z,13.57
2022-09-06T17:58:55.302Z,20.83
2022-09-06T18:01:26.146Z,17.90
2022-09-06T18:03:53.975Z,16.95
2022-09-06T18:06:23.604Z,16.33
2022-09-06T18:08:52.221Z,27.50
2022-09-06T18:11:22.588Z,22.60
2022-09-06T18:13:57.318Z,17.80
2022-09-06T18:16:25.471Z,14.73
2022-09-06T18:18:54.144Z,20.73
2022-09-06T18:21:22.830Z,23.75
2022-09-06T18:23:51.913Z,24.70
2022-09-06T18:26:19.800Z,17.73
2022-09-06T18:28:47.651Z,22.15
2022-09-06T18:31:17.762Z,25.40
2022-09-06T18:33:45.706Z,26.20
2022-09-06T18:36:17.622Z,28.45
2022-09-06T18:38:45.904Z,28.08
2022-09-06T18:41:37.418Z,27.17
2022-09-06T18:44:06.205Z,32.67
2022-09-06T18:46:36.332Z,22.30
2022-09-06T18:49:04.489Z,26.70
2022-09-06T18:51:32.855Z,25.05
2022-09-06T18:54:00.698Z,27.95
2022-09-06T18:56:28.805Z,20.40
2022-09-06T18:58:57.695Z,19.15
2022-09-06T19:01:26.253Z,24.63
2022-09-06T19:03:57.126Z,23.88
2022-09-06T19:06:25.523Z,28.88
2022-09-06T19:08:54.031Z,22.60
2022-09-06T19:11:22.971Z,23.17
2022-09-06T19:13:51.826Z,21.95
2022-09-06T19:16:20.024Z,16.75
2022-09-06T19:18:48.680Z,19.17
2022-09-06T19:21:22.546Z,22.02
2022-09-06T19:23:57.528Z,23.05
2022-09-06T19:26:26.914Z,24.83
2022-09-06T19:28:55.946Z,21.50
2022-09-06T19:31:24.246Z,26.48
2022-09-06T19:33:55.240Z,27.70
2022-09-06T19:36:25.923Z,19.77
2022-09-06T19:39:04.816Z,24.02
2022-09-06T19:41:35.119Z,24.63
2022-09-06T19:44:05.702Z,25.95
2022-09-06T19:46:40.119Z,26.83
2022-09-06T19:49:11.056Z,24.90
2022-09-06T19:51:40.430Z,35.55
2022-09-06T19:54:08.185Z,32.05
2022-09-06T19:56:36.381Z,29.77
2022-09-06T19:59:05.920Z,25.13
2022-09-06T20:01:34.674Z,27.00
2022-09-06T20:04:03.669Z,30.25
2022-09-06T20:06:31.720Z,32.63
2022-09-06T20:09:01.880Z,31.92
2022-09-06T20:11:30.646Z,33.53
2022-09-06T20:13:59.317Z,30.85
2022-09-06T20:16:27.981Z,34.33
2022-09-06T20:18:56.091Z,30.77
2022-09-06T20:21:23.822Z,28.92
2022-09-06T20:23:52.085Z,27.00
2022-09-06T20:26:23.794Z,36.72
2022-09-06T20:28:54.923Z,28.33
2022-09-06T20:31:23.268Z,29.60
2022-09-06T20:33:51.080Z,24.63
2022-09-06T20:36:19.261Z,27.92
2022-09-06T20:38:47.543Z,31.85
2022-09-06T20:41:16.390Z,30.10
2022-09-06T20:43:46.999Z,26.80
2022-09-06T20:46:16.312Z,30.77
2022-09-06T20:48:45.386Z,35.25
2022-09-06T20:51:15.071Z,31.75
2022-09-06T20:53:42.830Z,39.72
2022-09-06T20:56:12.054Z,36.05
2022-09-06T20:58:40.257Z,39.35
2022-09-06T21:01:10.231Z,31.83
2022-09-06T21:03:39.684Z,48.83
2022-09-06T21:06:07.715Z,34.83
2022-09-06T21:08:39.516Z,35.50
2022-09-06T21:11:10.427Z,46.15
2022-09-06T21:13:38.794Z,49.17
2022-09-06T21:16:07.246Z,42.53
2022-09-06T21:18:37.098Z,48.17
2022-09-06T21:21:06.066Z,40.58
2022-09-06T21:23:34.657Z,38.92
2022-09-06T21:26:03.410Z,40.97
2022-09-06T21:28:34.278Z,35.90
2022-09-06T21:31:03.003Z,36.67
2022-09-06T21:33:33.606Z,41.40
2022-09-06T21:36:06.806Z,47.45
2022-09-06T21:38:37.446Z,51.90
2022-09-06T21:41:08.736Z,44.47
2022-09-06T21:43:36.863Z,39.10
2022-09-06T21:46:05.302Z,46.28
2022-09-06T21:48:33.115Z,48.38
2022-09-06T21:51:00.833Z,49.45
2022-09-06T21:53:30.075Z,41.95
2022-09-06T21:56:01.907Z,39.97
2022-09-06T21:58:29.798Z,47.70
2022-09-06T22:00:58.683Z,45.97
2022-09-06T22:03:28.735Z,52.45
2022-09-06T22:05:56.496Z,52.47
2022-09-06T22:08:24.971Z,55.80
2022-09-06T22:10:54.415Z,45.42
2022-09-06T22:13:22.703Z,47.53
2022-09-06T22:15:53.073Z,39.53
2022-09-06T22:18:20.908Z,41.60
2022-09-06T22:20:49.345Z,44.22
2022-09-06T22:23:17.107Z,50.63
2022-09-06T22:25:44.930Z,50.17
2022-09-06T22:28:14.033Z,51.05
2022-09-06T22:30:43.482Z,59.25
2022-09-06T22:33:11.391Z,44.72
2022-09-06T22:35:39.220Z,44.70
2022-09-06T22:38:09.623Z,47.95
2022-09-06T22:40:37.323Z,49.17
2022-09-06T22:43:05.021Z,47.17
2022-09-06T22:45:34.213Z,48.80
2022-09-06T22:48:01.940Z,47.72
2022-09-06T22:50:30.524Z,41.50
2022-09-06T22:53:07.474Z,48.60
2022-09-06T22:55:35.837Z,45.17
2022-09-06T22:58:03.861Z,45.90
2022-09-06T23:00:31.773Z,45.63
2022-09-06T23:03:00.848Z,46.08
2022-09-06T23:05:28.528Z,42.45
2022-09-06T23:07:57.702Z,53.03
2022-09-06T23:10:25.430Z,57.15
2022-09-06T23:12:53.331Z,49.28
2022-09-06T23:15:22.196Z,44.80
2022-09-06T23:17:50.124Z,55.25
2022-09-06T23:20:19.401Z,53.95
2022-09-06T23:22:48.460Z,49.50
2022-09-06T23:25:16.379Z,51.08
2022-09-06T23:27:44.190Z,44.95
2022-09-06T23:30:12.282Z,51.28
2022-09-06T23:32:40.038Z,51.88
2022-09-06T23:35:08.090Z,53.25
2022-09-06T23:37:37.154Z,54.45
2022-09-06T23:40:09.116Z,48.63
2022-09-06T23:42:37.140Z,46.03
2022-09-06T23:45:06.052Z,46.92
2022-09-06T23:47:33.841Z,53.78
2022-09-06T23:50:02.235Z,49.53
2022-09-06T23:52:30.245Z,50.25
2022-09-06T23:54:59.768Z,50.35
2022-09-06T23:57:27.494Z,52.67
2022-09-06T23:59:55.177Z,52.50
